Time;durP1;ratioP1;P1;durP2;ratioP2;P2;SDS_P1;SDS_P2;PMS_P1;PMS_P2;Temp;Humidity;BMP_temperature;BMP_pressure;BME280_temperature;BME280_humidity;BME280_pressure;Samples;Min_cycle;Max_cycle;Signal;HPM_P1;HPM_P2
2024/02/08 00:00:55;;;;;;;25.80;12.98;;;1.50;99.90;;;;;;4954287;28;20536;-79
2024/02/08 00:03:21;;;;;;;26.90;13.07;;;1.50;99.90;;;;;;4985340;28;20121;-79
2024/02/08 00:05:46;;;;;;;25.80;11.18;;;1.60;99.90;;;;;;4960696;28;20069;-79
2024/02/08 00:08:12;;;;;;;26.65;12.10;;;1.60;99.90;;;;;;4969265;28;20030;-79
2024/02/08 00:10:38;;;;;;;17.38;9.75;;;1.70;99.90;;;;;;4957048;28;20485;-79
2024/02/08 00:13:03;;;;;;;18.52;10.73;;;1.60;99.90;;;;;;4956606;28;20085;-79
2024/02/08 00:15:32;;;;;;;16.58;9.25;;;1.60;99.90;;;;;;4965070;28;20030;-79
2024/02/08 00:17:57;;;;;;;18.38;9.68;;;1.60;99.90;;;;;;4964267;28;20509;-79
2024/02/08 00:20:23;;;;;;;15.88;9.45;;;1.60;99.90;;;;;;4968197;28;20022;-79
2024/02/08 00:22:52;;;;;;;15.25;8.68;;;1.60;99.90;;;;;;4971883;28;20057;-79
2024/02/08 00:25:18;;;;;;;16.83;9.35;;;1.60;99.90;;;;;;4950889;28;20031;-79
2024/02/08 00:27:43;;;;;;;15.35;8.88;;;1.60;99.90;;;;;;4938034;28;20098;-79
2024/02/08 00:30:09;;;;;;;14.55;9.20;;;1.70;99.90;;;;;;4941921;28;20453;-79
2024/02/08 00:32:35;;;;;;;27.60;12.88;;;1.60;99.90;;;;;;4971465;28;20034;-79
2024/02/08 00:35:03;;;;;;;24.02;12.02;;;1.70;99.90;;;;;;4967053;28;20046;-79
2024/02/08 00:37:31;;;;;;;25.45;12.18;;;1.60;99.90;;;;;;4939257;28;20042;-79
2024/02/08 00:39:57;;;;;;;14.65;8.30;;;1.60;99.90;;;;;;4954334;28;20808;-79
2024/02/08 00:42:22;;;;;;;22.42;11.45;;;1.60;99.90;;;;;;4937407;28;20058;-79
2024/02/08 00:44:50;;;;;;;23.23;11.30;;;1.70;99.90;;;;;;4967565;28;20330;-79
2024/02/08 00:47:15;;;;;;;20.15;12.20;;;1.60;99.90;;;;;;4970052;28;20026;-78
2024/02/08 00:49:41;;;;;;;18.63;8.88;;;1.60;99.90;;;;;;4953501;28;20058;-79
2024/02/08 00:52:07;;;;;;;27.58;13.20;;;1.60;99.90;;;;;;4971356;28;20030;-79
2024/02/08 00:54:35;;;;;;;19.17;10.23;;;1.60;99.90;;;;;;4954532;28;20088;-79
2024/02/08 00:57:01;;;;;;;14.77;8.77;;;1.60;99.90;;;;;;4985185;28;20030;-79
2024/02/08 00:59:26;;;;;;;22.15;12.25;;;1.70;99.90;;;;;;4968399;28;20027;-79
2024/02/08 01:01:52;;;;;;;24.17;11.88;;;1.60;99.90;;;;;;4950531;28;20039;-78
2024/02/08 01:04:21;;;;;;;32.95;13.07;;;1.60;99.90;;;;;;4964710;28;20085;-77
2024/02/08 01:06:47;;;;;;;24.48;11.70;;;1.50;99.90;;;;;;4938638;28;20034;-77
2024/02/08 01:09:12;;;;;;;23.80;12.70;;;1.50;99.90;;;;;;4950272;28;20034;-77
2024/02/08 01:11:38;;;;;;;26.08;13.85;;;1.50;99.90;;;;;;4964907;28;20041;-77
2024/02/08 01:14:03;;;;;;;25.83;12.80;;;1.60;99.90;;;;;;4952232;28;20034;-78
2024/02/08 01:16:30;;;;;;;24.58;13.05;;;1.60;99.90;;;;;;4984776;28;20082;-77
2024/02/08 01:18:56;;;;;;;12.77;7.45;;;1.60;99.90;;;;;;4949852;28;20085;-77
2024/02/08 01:21:22;;;;;;;17.23;9.23;;;1.60;99.90;;;;;;4969592;28;20550;-77
2024/02/08 01:23:48;;;;;;;18.85;9.85;;;1.60;99.90;;;;;;4974226;28;20038;-79
2024/02/08 01:26:15;;;;;;;26.95;13.88;;;1.60;99.90;;;;;;4961122;28;20049;-77
2024/02/08 01:28:41;;;;;;;21.83;12.48;;;1.60;99.90;;;;;;4955569;28;20066;-77
2024/02/08 01:31:07;;;;;;;21.15;10.68;;;1.60;99.90;;;;;;4941817;28;20034;-79
2024/02/08 01:33:36;;;;;;;23.08;11.38;;;1.60;99.90;;;;;;4955083;28;21504;-79
2024/02/08 01:36:02;;;;;;;25.35;10.70;;;1.70;99.90;;;;;;4972522;28;20643;-77
2024/02/08 01:38:29;;;;;;;23.40;12.05;;;1.60;99.90;;;;;;4956113;28;20071;-79
2024/02/08 01:40:55;;;;;;;13.13;8.30;;;1.60;99.90;;;;;;4942043;28;20141;-79
2024/02/08 01:43:20;;;;;;;22.48;11.75;;;1.60;99.90;;;;;;4937121;28;20582;-79
2024/02/08 01:45:46;;;;;;;26.73;12.10;;;1.70;99.90;;;;;;4968210;28;20043;-79
2024/02/08 01:48:15;;;;;;;23.52;13.10;;;1.70;99.90;;;;;;4969268;28;20223;-79
2024/02/08 01:50:49;;;;;;;24.10;12.98;;;1.60;99.90;;;;;;4968734;28;20045;-79
2024/02/08 01:53:18;;;;;;;24.70;12.02;;;1.50;99.90;;;;;;4937177;28;20034;-80
2024/02/08 01:55:49;;;;;;;18.98;11.77;;;1.50;99.90;;;;;;4968727;28;20034;-79
2024/02/08 01:58:15;;;;;;;22.35;12.95;;;1.40;99.90;;;;;;4955069;28;20113;-79
2024/02/08 02:00:40;;;;;;;16.27;9.85;;;1.50;99.90;;;;;;4954361;28;20108;-79
2024/02/08 02:03:11;;;;;;;16.90;10.35;;;1.50;99.90;;;;;;4956379;28;20045;-79
2024/02/08 02:05:41;;;;;;;13.73;8.18;;;1.60;99.90;;;;;;4956810;28;20038;-79
2024/02/08 02:08:09;;;;;;;25.70;11.85;;;1.60;99.90;;;;;;4939023;28;20046;-79
2024/02/08 02:10:34;;;;;;;15.20;8.35;;;1.50;99.90;;;;;;4937369;28;20038;-79
2024/02/08 02:13:01;;;;;;;23.10;12.65;;;1.60;99.90;;;;;;4967853;28;20495;-79
2024/02/08 02:15:31;;;;;;;17.02;9.77;;;1.60;99.90;;;;;;4975277;28;20402;-79
2024/02/08 02:17:59;;;;;;;23.10;11.32;;;1.70;99.90;;;;;;4944288;28;20127;-79
2024/02/08 02:20:29;;;;;;;17.88;10.82;;;1.70;99.90;;;;;;4948783;28;20039;-79
2024/02/08 02:22:58;;;;;;;19.55;11.35;;;1.60;99.90;;;;;;4934533;28;20525;-79
2024/02/08 02:25:25;;;;;;;22.05;12.43;;;1.60;99.90;;;;;;4956986;28;20396;-79
2024/02/08 02:27:53;;;;;;;11.43;8.20;;;1.60;99.90;;;;;;4952379;28;20518;-79
2024/02/08 02:30:19;;;;;;;22.98;11.82;;;1.60;99.90;;;;;;4971669;28;20110;-79
2024/02/08 02:32:49;;;;;;;11.35;7.20;;;1.60;99.90;;;;;;4971499;28;20031;-79
2024/02/08 02:35:18;;;;;;;26.55;8.68;;;1.60;99.90;;;;;;4963649;28;20053;-79
2024/02/08 02:37:44;;;;;;;82.15;12.80;;;1.60;99.90;;;;;;4966443;28;20026;-79
2024/02/08 02:40:22;;;;;;;73.05;12.27;;;1.60;99.90;;;;;;4956041;28;20582;-79
2024/02/08 02:42:52;;;;;;;12.07;7.38;;;1.50;99.90;;;;;;4969483;28;20062;-79
2024/02/08 02:45:23;;;;;;;161.57;18.25;;;1.60;99.90;;;;;;4941890;28;20037;-79
2024/02/08 02:47:53;;;;;;;23.85;12.35;;;1.60;99.90;;;;;;4938756;28;20038;-79
2024/02/08 02:50:20;;;;;;;26.63;13.25;;;1.50;99.90;;;;;;4937926;28;20695;-79
2024/02/08 02:52:46;;;;;;;27.73;12.65;;;1.50;99.90;;;;;;4970766;28;20113;-79
2024/02/08 02:55:12;;;;;;;21.38;11.80;;;1.50;99.90;;;;;;4940261;28;20605;-79
2024/02/08 02:57:38;;;;;;;20.75;11.65;;;1.50;99.90;;;;;;4940983;28;20039;-79
2024/02/08 03:00:15;;;;;;;23.15;12.43;;;1.50;99.90;;;;;;4953890;28;20090;-79
2024/02/08 03:02:41;;;;;;;22.38;13.02;;;1.50;99.90;;;;;;4955465;28;20566;-79
2024/02/08 03:05:07;;;;;;;20.35;11.25;;;1.50;99.90;;;;;;4955153;28;20097;-79
2024/02/08 03:07:32;;;;;;;24.90;12.85;;;1.50;99.90;;;;;;4952694;28;20058;-79
2024/02/08 03:09:58;;;;;;;22.95;12.45;;;1.50;99.90;;;;;;4968701;28;20060;-80
2024/02/08 03:12:23;;;;;;;22.58;12.80;;;1.40;99.90;;;;;;4940345;28;20443;-79
2024/02/08 03:14:58;;;;;;;28.67;15.48;;;1.40;99.90;;;;;;4968650;28;20161;-79
2024/02/08 03:17:24;;;;;;;22.42;12.30;;;1.30;99.90;;;;;;4938530;28;20083;-79
2024/02/08 03:19:49;;;;;;;21.27;13.35;;;1.30;99.90;;;;;;4941034;28;20031;-79
2024/02/08 03:22:18;;;;;;;25.67;12.52;;;1.40;99.90;;;;;;4970449;28;20031;-79
2024/02/08 03:24:44;;;;;;;29.48;13.38;;;1.30;99.90;;;;;;4970304;28;20168;-79
2024/02/08 03:27:13;;;;;;;17.80;9.75;;;1.20;99.90;;;;;;4957748;28;20054;-79
2024/02/08 03:29:42;;;;;;;16.13;9.05;;;1.30;99.90;;;;;;4968918;28;20155;-79
2024/02/08 03:32:08;;;;;;;21.20;10.77;;;1.40;99.90;;;;;;4957687;28;20054;-79
2024/02/08 03:34:35;;;;;;;25.27;13.52;;;1.30;99.90;;;;;;4964266;28;20058;-79
2024/02/08 03:37:02;;;;;;;22.80;13.88;;;1.40;99.90;;;;;;4953488;28;20097;-79
2024/02/08 03:39:28;;;;;;;32.55;14.40;;;1.30;99.90;;;;;;4953234;28;20666;-79
2024/02/08 03:41:58;;;;;;;57.40;11.93;;;1.30;99.90;;;;;;4940228;28;20042;-79
2024/02/08 03:44:24;;;;;;;13.02;7.85;;;1.30;99.90;;;;;;4971116;28;20097;-79
2024/02/08 03:46:51;;;;;;;110.45;12.77;;;1.30;99.90;;;;;;4953683;28;20039;-79
2024/02/08 03:49:17;;;;;;;113.00;12.85;;;1.30;99.90;;;;;;4953764;28;20489;-79
2024/02/08 03:51:42;;;;;;;141.32;15.02;;;1.30;99.90;;;;;;4953023;28;20034;-79
2024/02/08 03:54:08;;;;;;;34.33;11.93;;;1.30;99.90;;;;;;4965639;28;20042;-79
2024/02/08 03:56:37;;;;;;;28.02;10.75;;;1.30;99.90;;;;;;4938322;28;20498;-79
2024/02/08 03:59:07;;;;;;;24.25;11.85;;;1.30;99.90;;;;;;4964260;28;20046;-79
2024/02/08 04:01:33;;;;;;;18.90;10.60;;;1.30;99.90;;;;;;4967063;28;20536;-79
2024/02/08 04:04:12;;;;;;;20.05;12.35;;;1.30;99.90;;;;;;4967200;28;20038;-79
2024/02/08 04:06:49;;;;;;;22.65;11.55;;;1.30;99.90;;;;;;4971606;28;20805;-79
2024/02/08 04:09:33;;;;;;;30.90;12.93;;;1.40;99.90;;;;;;4968374;28;20063;-79
2024/02/08 04:55:59;;;;;;;15.73;8.65;;;1.50;99.90;;;;;;4961295;28;20037;-79
2024/02/08 04:58:26;;;;;;;19.08;10.18;;;1.60;99.90;;;;;;4963170;28;20031;-79
2024/02/08 05:00:52;;;;;;;12.95;8.32;;;1.60;99.90;;;;;;4976553;28;20033;-80
2024/02/08 05:03:19;;;;;;;32.17;13.65;;;1.70;99.90;;;;;;4976769;28;21004;-79
2024/02/08 05:05:46;;;;;;;20.48;10.07;;;1.80;99.90;;;;;;4941561;28;20031;-80
2024/02/08 05:08:11;;;;;;;25.70;12.80;;;1.70;99.90;;;;;;4970424;28;20037;-79
2024/02/08 05:10:37;;;;;;;25.30;12.27;;;1.60;99.90;;;;;;4943987;28;20042;-79
2024/02/08 05:13:04;;;;;;;24.63;13.02;;;1.60;99.90;;;;;;4955331;28;20529;-80
2024/02/08 05:15:30;;;;;;;22.30;12.32;;;1.60;99.90;;;;;;4970935;28;20505;-79
2024/02/08 05:17:56;;;;;;;22.85;11.73;;;1.60;99.90;;;;;;4957933;28;20169;-80
2024/02/08 05:20:21;;;;;;;25.70;13.77;;;1.50;99.90;;;;;;4960252;28;20124;-79
2024/02/08 05:22:48;;;;;;;29.35;12.85;;;1.60;99.90;;;;;;4954869;28;20113;-79
2024/02/08 05:25:14;;;;;;;24.90;12.85;;;1.50;99.90;;;;;;4956116;28;20521;-79
2024/02/08 05:27:39;;;;;;;24.77;13.15;;;1.50;99.90;;;;;;4971673;28;20039;-79
2024/02/08 05:30:05;;;;;;;12.95;7.65;;;1.50;99.90;;;;;;4938673;28;20034;-79
2024/02/08 05:32:33;;;;;;;12.70;8.02;;;1.50;99.90;;;;;;4954839;28;20122;-80
2024/02/08 05:35:02;;;;;;;19.77;10.35;;;1.60;99.90;;;;;;4953874;28;20042;-79
2024/02/08 05:37:29;;;;;;;23.20;11.55;;;1.60;99.90;;;;;;4954663;28;20092;-79
2024/02/08 05:39:55;;;;;;;27.63;12.93;;;1.60;99.90;;;;;;4979264;28;20502;-80
2024/02/08 05:42:24;;;;;;;26.88;13.05;;;1.60;99.90;;;;;;4957057;28;20109;-79
2024/02/08 05:44:50;;;;;;;23.70;13.35;;;1.50;99.90;;;;;;4955307;28;20047;-79
2024/02/08 05:47:25;;;;;;;32.45;14.60;;;1.50;99.90;;;;;;4955116;28;20038;-79
2024/02/08 05:49:53;;;;;;;24.57;12.27;;;1.60;99.90;;;;;;4954119;28;20042;-80
2024/02/08 05:52:20;;;;;;;23.58;12.40;;;1.60;99.90;;;;;;4953414;28;20081;-80
2024/02/08 05:54:52;;;;;;;23.92;10.18;;;1.50;99.90;;;;;;4987199;28;20858;-79
2024/02/08 05:57:21;;;;;;;25.55;12.48;;;1.60;99.90;;;;;;4970032;28;20035;-79
2024/02/08 05:59:46;;;;;;;24.10;12.93;;;1.60;99.90;;;;;;4942532;28;20520;-80
2024/02/08 06:02:22;;;;;;;14.23;7.63;;;1.50;99.90;;;;;;4955290;28;20109;-80
2024/02/08 06:04:59;;;;;;;29.85;13.07;;;1.60;99.90;;;;;;4955435;28;20038;-79
2024/02/08 06:07:29;;;;;;;15.85;7.90;;;1.50;99.90;;;;;;4973896;28;20039;-79
2024/02/08 06:10:07;;;;;;;24.50;12.32;;;1.60;99.90;;;;;;4953065;28;20412;-80
2024/02/08 06:12:51;;;;;;;25.02;12.88;;;1.60;99.90;;;;;;4970767;28;20042;-79
2024/02/08 06:15:32;;;;;;;24.92;12.70;;;1.50;99.90;;;;;;4957092;28;20375;-79
2024/02/08 06:18:03;;;;;;;24.08;12.07;;;1.50;99.90;;;;;;4957123;28;20034;-79
2024/02/08 06:20:43;;;;;;;27.40;14.07;;;1.50;99.90;;;;;;4953029;28;20510;-79
2024/02/08 06:23:23;;;;;;;25.92;13.38;;;1.50;99.90;;;;;;4955779;28;20038;-79
2024/02/08 06:28:41;;;;;;;21.40;11.82;;;1.50;99.90;;;;;;4965718;28;20041;-79
2024/02/08 06:31:07;;;;;;;30.83;14.15;;;1.50;99.90;;;;;;4971622;28;20402;-79
2024/02/08 06:33:42;;;;;;;33.20;14.43;;;1.50;99.90;;;;;;4939548;28;20465;-79
2024/02/08 06:36:08;;;;;;;31.13;14.13;;;1.50;99.90;;;;;;4956834;28;20034;-79
2024/02/08 06:38:41;;;;;;;30.55;13.27;;;1.50;99.90;;;;;;4951780;28;20089;-79
2024/02/08 06:41:10;;;;;;;35.25;15.45;;;1.50;99.90;;;;;;4968888;28;20022;-79
2024/02/08 06:44:42;;;;;;;37.70;15.25;;;1.50;99.90;;;;;;4955847;28;20039;-80
2024/02/08 06:46:47;;;;;;;32.47;14.60;;;1.50;99.90;;;;;;4961549;28;20154;-79
2024/02/08 07:41:33;;;;;;;31.27;13.80;;;1.90;99.90;;;;;;4916305;29;20035;-79
2024/02/08 07:43:59;;;;;;;38.75;15.52;;;2.00;99.90;;;;;;4926793;29;20047;-79
2024/02/08 07:46:29;;;;;;;30.33;16.00;;;2.00;99.90;;;;;;4940615;28;20043;-79
2024/02/08 07:48:58;;;;;;;30.00;13.52;;;2.00;99.90;;;;;;4970571;28;20129;-79
2024/02/08 07:51:28;;;;;;;38.70;16.02;;;2.00;99.90;;;;;;4986264;28;20026;-79
2024/02/08 07:53:58;;;;;;;29.17;16.15;;;2.10;99.90;;;;;;4942620;28;20036;-79
2024/02/08 07:58:56;;;;;;;34.75;15.90;;;2.10;99.90;;;;;;4961180;28;20121;-79
2024/02/08 08:01:22;;;;;;;33.10;15.38;;;2.10;99.90;;;;;;4961669;28;20038;-79
2024/02/08 08:03:55;;;;;;;39.65;16.92;;;2.10;99.90;;;;;;4956027;28;20809;-79
2024/02/08 08:06:22;;;;;;;35.00;17.52;;;2.20;99.90;;;;;;4967910;28;20038;-79
2024/02/08 08:08:57;;;;;;;37.90;16.42;;;2.30;99.90;;;;;;4952439;28;20041;-79
2024/02/08 08:11:25;;;;;;;36.58;16.10;;;2.30;99.90;;;;;;4956262;28;20072;-79
2024/02/08 08:19:07;;;;;;;40.77;18.27;;;2.40;99.90;;;;;;4957736;28;20711;-80
2024/02/08 08:24:26;;;;;;;42.20;17.70;;;2.50;99.90;;;;;;4927165;28;20030;-80
2024/02/08 08:29:46;;;;;;;43.55;18.77;;;2.60;99.90;;;;;;4971394;28;20097;-80
2024/02/08 08:35:37;;;;;;;35.28;16.63;;;2.70;99.90;;;;;;4974191;28;20034;-80
2024/02/08 08:40:48;;;;;;;35.80;16.40;;;2.90;99.90;;;;;;4968289;28;20039;-79
2024/02/08 08:43:19;;;;;;;39.20;18.75;;;2.90;99.90;;;;;;4966729;28;20199;-80
2024/02/08 08:45:52;;;;;;;33.83;17.83;;;2.90;99.90;;;;;;4938950;28;20054;-79
2024/02/08 08:48:21;;;;;;;41.45;19.67;;;3.00;99.90;;;;;;4953693;28;20022;-80
2024/02/08 08:50:55;;;;;;;35.65;16.92;;;3.00;99.90;;;;;;4982289;28;20046;-80
2024/02/08 08:53:27;;;;;;;41.40;18.98;;;3.10;99.90;;;;;;4955754;28;20597;-80
2024/02/08 08:55:56;;;;;;;36.78;15.93;;;3.20;99.90;;;;;;4970061;28;20526;-80
2024/02/08 08:58:27;;;;;;;40.88;18.30;;;3.20;99.90;;;;;;4961339;28;20113;-79
2024/02/08 09:01:27;;;;;;;38.58;20.67;;;3.30;99.90;;;;;;4984275;28;20070;-80
2024/02/08 09:03:55;;;;;;;39.53;19.83;;;3.30;99.90;;;;;;4967215;28;20030;-79
2024/02/08 09:06:25;;;;;;;44.13;19.80;;;3.40;99.90;;;;;;4955293;28;20034;-80
2024/02/08 09:08:58;;;;;;;41.33;18.17;;;3.50;99.90;;;;;;4954258;28;20122;-79
2024/02/08 09:11:25;;;;;;;41.60;18.30;;;3.50;99.90;;;;;;4970785;28;20037;-80
2024/02/08 09:13:54;;;;;;;39.40;19.88;;;3.60;99.90;;;;;;4960152;28;20037;-79
2024/02/08 09:21:26;;;;;;;35.30;17.70;;;3.80;99.90;;;;;;4970469;28;20030;-80
2024/02/08 09:23:54;;;;;;;35.58;19.02;;;3.90;99.90;;;;;;4969141;28;20035;-79
2024/02/08 09:26:24;;;;;;;39.60;18.13;;;3.90;99.90;;;;;;4955718;28;20486;-79
2024/02/08 09:28:50;;;;;;;40.67;18.65;;;4.00;99.90;;;;;;4971738;28;20035;-80
2024/02/08 09:31:17;;;;;;;30.80;16.45;;;4.00;99.90;;;;;;4939451;28;20061;-79
2024/02/08 09:33:47;;;;;;;45.33;18.92;;;4.00;99.90;;;;;;4951681;28;20042;-79
2024/02/08 09:36:16;;;;;;;41.88;19.08;;;4.00;99.90;;;;;;4968090;28;20030;-80
2024/02/08 09:38:43;;;;;;;31.77;15.15;;;4.10;99.90;;;;;;4951260;28;20441;-79
2024/02/08 09:41:15;;;;;;;44.92;18.40;;;4.10;99.90;;;;;;4948532;28;20418;-79
2024/02/08 09:43:48;;;;;;;37.35;17.70;;;4.10;99.90;;;;;;4969305;28;20030;-80
2024/02/08 09:46:49;;;;;;;46.50;20.15;;;4.10;99.90;;;;;;4973241;28;20066;-79
2024/02/08 09:49:17;;;;;;;38.17;19.60;;;4.20;99.90;;;;;;4963771;28;20121;-79
2024/02/08 09:51:52;;;;;;;43.90;19.55;;;4.20;99.90;;;;;;4956689;28;20030;-79
2024/02/08 09:54:27;;;;;;;48.28;21.13;;;4.30;99.90;;;;;;4970201;28;20042;-79
2024/02/08 09:56:55;;;;;;;42.15;18.98;;;4.30;99.90;;;;;;4956866;28;20031;-79
2024/02/08 09:59:58;;;;;;;40.47;16.58;;;4.30;99.90;;;;;;4970748;28;20073;-79
2024/02/08 10:02:20;;;;;;;39.57;18.80;;;4.40;99.90;;;;;;4990258;28;20031;-79
2024/02/08 10:04:49;;;;;;;40.25;17.73;;;4.50;99.90;;;;;;4956589;28;20042;-79
2024/02/08 10:07:19;;;;;;;43.17;19.55;;;4.60;99.90;;;;;;4950441;28;20041;-79
2024/02/08 10:09:47;;;;;;;42.47;19.92;;;4.60;99.90;;;;;;4957653;28;20034;-80
2024/02/08 10:12:30;;;;;;;39.58;19.10;;;4.70;99.90;;;;;;4944202;28;20438;-79
2024/02/08 10:14:59;;;;;;;41.13;19.35;;;4.80;99.90;;;;;;4970688;28;20062;-79
2024/02/08 10:17:25;;;;;;;36.85;17.20;;;4.80;99.90;;;;;;4954578;28;20046;-80
2024/02/08 10:22:56;;;;;;;34.78;17.65;;;4.90;99.90;;;;;;4974184;28;20656;-79
2024/02/08 10:28:23;;;;;;;45.05;20.45;;;5.10;99.90;;;;;;4975399;28;20564;-79
2024/02/08 10:30:57;;;;;;;36.15;18.50;;;5.10;99.90;;;;;;4991979;28;20113;-79
2024/02/08 10:33:24;;;;;;;30.70;14.95;;;5.20;99.90;;;;;;4955853;28;20065;-79
2024/02/08 10:35:53;;;;;;;40.08;16.92;;;5.20;99.90;;;;;;4954676;28;20038;-79
2024/02/08 10:38:29;;;;;;;38.50;17.20;;;5.20;99.90;;;;;;4955959;28;20038;-79
2024/02/08 10:40:56;;;;;;;34.20;16.50;;;5.20;99.90;;;;;;4955229;28;20039;-79
2024/02/08 10:43:25;;;;;;;26.75;12.75;;;5.30;99.90;;;;;;4959995;28;20120;-80
2024/02/08 10:45:53;;;;;;;36.00;16.05;;;5.20;99.90;;;;;;4952605;28;20596;-79
2024/02/08 10:48:22;;;;;;;35.90;17.42;;;5.20;99.90;;;;;;4939658;28;20030;-80
2024/02/08 10:50:49;;;;;;;32.33;16.80;;;5.20;99.90;;;;;;4942533;28;20477;-79
2024/02/08 10:56:13;;;;;;;34.10;16.42;;;5.30;99.90;;;;;;4954512;28;20046;-80
2024/02/08 10:58:55;;;;;;;38.45;17.38;;;5.40;99.90;;;;;;4971349;28;20044;-80
2024/02/08 11:01:32;;;;;;;35.53;16.90;;;5.40;99.90;;;;;;4971836;28;20034;-80
2024/02/08 11:04:00;;;;;;;33.38;16.88;;;5.40;99.90;;;;;;4954454;28;20042;-80
2024/02/08 11:06:29;;;;;;;38.22;16.77;;;5.40;99.90;;;;;;4952547;28;20038;-80
2024/02/08 11:11:59;;;;;;;40.15;17.83;;;5.50;99.90;;;;;;4960110;28;20037;-80
2024/02/08 11:14:26;;;;;;;40.67;16.88;;;5.40;99.90;;;;;;4955536;28;20031;-80
2024/02/08 11:16:54;;;;;;;30.02;15.50;;;5.50;99.90;;;;;;4972556;28;20146;-80
2024/02/08 11:19:22;;;;;;;36.53;16.00;;;5.50;99.90;;;;;;4957903;28;20022;-79
2024/02/08 11:21:49;;;;;;;29.98;14.63;;;5.50;99.90;;;;;;4940446;28;20048;-80
2024/02/08 11:24:38;;;;;;;32.53;16.10;;;5.40;99.90;;;;;;4965493;28;20458;-80
2024/02/08 11:27:04;;;;;;;40.13;17.05;;;5.40;99.90;;;;;;4970655;28;20053;-80
2024/02/08 11:29:46;;;;;;;35.55;15.90;;;5.40;99.90;;;;;;4938220;28;20038;-80
2024/02/08 11:32:16;;;;;;;32.95;15.35;;;5.40;99.90;;;;;;4970578;28;20033;-80
2024/02/08 11:34:44;;;;;;;22.27;12.00;;;5.50;99.90;;;;;;4967883;28;20031;-80
2024/02/08 11:37:17;;;;;;;31.48;15.75;;;5.40;99.90;;;;;;4955385;28;20031;-80
2024/02/08 11:39:49;;;;;;;36.60;16.45;;;5.40;99.90;;;;;;4939562;28;20360;-79
2024/02/08 11:42:17;;;;;;;29.27;15.05;;;5.40;99.90;;;;;;4952612;28;20109;-81
2024/02/08 11:44:44;;;;;;;27.73;13.98;;;5.50;99.90;;;;;;4968472;28;20042;-81
2024/02/08 11:47:22;;;;;;;33.92;15.70;;;5.50;99.90;;;;;;4969755;28;20027;-80
2024/02/08 11:49:52;;;;;;;23.70;13.25;;;5.50;99.90;;;;;;4951823;28;20039;-81
2024/02/08 11:52:19;;;;;;;29.85;14.55;;;5.50;99.90;;;;;;4953980;28;20127;-80
2024/02/08 11:54:58;;;;;;;33.40;14.38;;;5.40;99.90;;;;;;4955392;28;20383;-81
2024/02/08 11:57:25;;;;;;;37.83;15.90;;;5.50;99.90;;;;;;4953388;28;20022;-81
2024/02/08 11:59:55;;;;;;;34.33;16.20;;;5.50;99.90;;;;;;4924983;28;20073;-80
2024/02/08 12:02:21;;;;;;;28.23;14.68;;;5.50;99.90;;;;;;4968650;28;20033;-81
2024/02/08 12:04:52;;;;;;;29.88;15.57;;;5.40;99.90;;;;;;4955282;28;20030;-81
2024/02/08 12:07:20;;;;;;;38.65;15.57;;;5.40;99.90;;;;;;4968801;28;20037;-80
2024/02/08 12:09:55;;;;;;;31.05;14.75;;;5.40;99.90;;;;;;4968904;28;20826;-80
2024/02/08 12:12:25;;;;;;;27.50;13.60;;;5.40;99.90;;;;;;4952765;28;20045;-80
2024/02/08 12:14:53;;;;;;;33.05;15.70;;;5.50;99.90;;;;;;4938601;28;20411;-80
2024/02/08 12:17:22;;;;;;;30.80;14.10;;;5.50;99.90;;;;;;4953492;28;20061;-80
2024/02/08 12:19:47;;;;;;;30.98;14.27;;;5.50;99.90;;;;;;4971211;28;20042;-82
2024/02/08 12:22:14;;;;;;;28.73;13.75;;;5.50;99.90;;;;;;4968707;28;20391;-80
2024/02/08 12:24:41;;;;;;;33.30;14.52;;;5.50;99.90;;;;;;4953099;28;20053;-80
2024/02/08 12:27:12;;;;;;;26.45;13.00;;;5.50;99.90;;;;;;4950498;28;20057;-80
2024/02/08 12:29:41;;;;;;;26.88;14.38;;;5.50;99.90;;;;;;4940092;28;20665;-81
2024/02/08 12:32:16;;;;;;;29.33;15.48;;;5.50;99.90;;;;;;4953860;28;20093;-80
2024/02/08 12:34:42;;;;;;;27.15;13.07;;;5.50;99.90;;;;;;4952836;28;20034;-80
2024/02/08 12:37:08;;;;;;;25.23;14.02;;;5.50;99.90;;;;;;4953580;28;20046;-80
2024/02/08 12:39:38;;;;;;;29.92;15.77;;;5.60;99.90;;;;;;4939817;28;20026;-80
2024/02/08 12:42:05;;;;;;;29.30;14.68;;;5.60;99.90;;;;;;4980611;28;20483;-80
2024/02/08 12:44:34;;;;;;;20.90;11.77;;;5.70;99.90;;;;;;4950341;28;20042;-80
2024/02/08 12:47:01;;;;;;;25.88;15.23;;;5.70;99.90;;;;;;4952637;28;20034;-80
2024/02/08 12:49:27;;;;;;;27.88;14.38;;;5.70;99.90;;;;;;4967428;28;20035;-80
2024/02/08 12:51:59;;;;;;;28.13;14.95;;;5.80;99.90;;;;;;4944063;28;20041;-80
2024/02/08 12:54:30;;;;;;;27.95;14.57;;;5.70;99.90;;;;;;4954720;28;20041;-80
2024/02/08 12:57:12;;;;;;;21.33;14.88;;;5.70;99.90;;;;;;4986440;28;20035;-80
2024/02/08 12:59:39;;;;;;;27.30;14.48;;;5.80;99.90;;;;;;4952801;28;20046;-80
2024/02/08 13:02:17;;;;;;;21.45;13.43;;;5.70;99.90;;;;;;4946288;28;21034;-80
2024/02/08 13:04:48;;;;;;;21.08;12.30;;;5.80;99.90;;;;;;4941205;28;20928;-80
2024/02/08 13:07:15;;;;;;;20.35;11.55;;;5.80;99.90;;;;;;4956577;28;20525;-80
2024/02/08 13:09:46;;;;;;;24.73;11.90;;;5.80;99.90;;;;;;4624593;28;9999862;-81
2024/02/08 13:12:17;;;;;;;22.52;11.65;;;5.90;99.90;;;;;;4948363;28;20062;-80
2024/02/08 13:14:49;;;;;;;23.65;14.00;;;5.90;99.90;;;;;;4950671;28;20047;-80
2024/02/08 13:17:18;;;;;;;21.92;13.05;;;5.90;99.90;;;;;;4972194;28;20098;-80
2024/02/08 13:19:57;;;;;;;21.45;13.18;;;5.90;99.90;;;;;;4940953;28;20525;-80
2024/02/08 13:22:33;;;;;;;21.45;12.75;;;6.00;99.90;;;;;;4971477;28;20832;-80
2024/02/08 13:24:58;;;;;;;21.63;13.40;;;6.00;99.90;;;;;;4983305;28;20395;-80
2024/02/08 13:27:28;;;;;;;21.70;13.73;;;6.00;99.90;;;;;;4957163;28;20037;-80
2024/02/08 13:29:54;;;;;;;23.33;14.10;;;6.00;99.90;;;;;;4940105;28;20137;-81
2024/02/08 13:32:29;;;;;;;22.88;12.82;;;6.00;99.90;;;;;;4953930;28;20547;-80
2024/02/08 13:35:00;;;;;;;22.00;13.55;;;6.00;99.90;;;;;;4953873;28;20360;-80
2024/02/08 13:37:27;;;;;;;21.13;11.45;;;6.00;99.90;;;;;;4968428;28;20086;-80
2024/02/08 13:39:59;;;;;;;18.38;11.85;;;5.90;99.90;;;;;;4953998;28;20035;-80
2024/02/08 13:42:29;;;;;;;23.13;12.55;;;6.00;99.90;;;;;;4961379;28;20490;-80
2024/02/08 13:44:58;;;;;;;19.17;11.90;;;5.90;99.90;;;;;;4955332;28;20046;-80
2024/02/08 13:47:27;;;;;;;20.55;12.57;;;5.90;99.90;;;;;;4958341;28;20117;-81
2024/02/08 13:49:57;;;;;;;21.92;12.10;;;5.90;99.90;;;;;;4956975;28;20410;-80
2024/02/08 13:52:25;;;;;;;24.63;10.98;;;5.90;99.90;;;;;;4948297;28;20060;-81
2024/02/08 13:54:53;;;;;;;17.67;12.20;;;5.90;99.90;;;;;;4943466;28;20034;-80
2024/02/08 13:57:19;;;;;;;22.00;10.20;;;5.90;99.90;;;;;;4961149;28;20038;-81
2024/02/08 13:59:51;;;;;;;17.35;11.43;;;5.80;99.90;;;;;;4968745;28;20574;-81
2024/02/08 14:02:18;;;;;;;20.88;11.82;;;5.90;99.90;;;;;;4938684;28;20039;-81
2024/02/08 14:04:50;;;;;;;16.65;10.43;;;5.80;99.90;;;;;;4945685;28;20089;-81
2024/02/08 14:07:24;;;;;;;19.20;10.77;;;5.80;99.90;;;;;;4954212;28;20046;-81
2024/02/08 14:09:58;;;;;;;21.40;11.00;;;5.80;99.90;;;;;;4955127;28;20060;-81
2024/02/08 14:12:27;;;;;;;22.35;11.40;;;5.80;99.90;;;;;;4944968;28;20498;-79
2024/02/08 14:14:54;;;;;;;20.05;11.52;;;5.80;99.90;;;;;;4971187;28;20109;-79
2024/02/08 14:17:27;;;;;;;17.80;10.80;;;5.80;99.90;;;;;;4953206;28;21404;-79
2024/02/08 14:19:55;;;;;;;22.40;11.48;;;5.80;99.90;;;;;;4970443;28;20136;-79
2024/02/08 14:22:21;;;;;;;16.80;10.13;;;5.80;99.90;;;;;;4957651;28;20068;-78
2024/02/08 14:24:51;;;;;;;18.38;11.02;;;5.80;99.90;;;;;;4955070;28;20447;-79
2024/02/08 14:27:17;;;;;;;18.88;10.40;;;5.80;99.90;;;;;;4972641;28;20059;-82
2024/02/08 14:29:43;;;;;;;15.15;9.32;;;5.70;99.90;;;;;;4945720;28;20053;-79
2024/02/08 14:32:08;;;;;;;12.95;8.43;;;5.70;99.90;;;;;;4942867;28;20031;-79
2024/02/08 14:34:39;;;;;;;14.15;10.10;;;5.70;99.90;;;;;;4953793;28;20081;-78
2024/02/08 14:37:05;;;;;;;13.63;9.70;;;5.70;99.90;;;;;;4954281;28;20034;-78
2024/02/08 14:39:34;;;;;;;13.65;9.48;;;5.60;99.90;;;;;;4939070;28;20028;-79
2024/02/08 14:42:11;;;;;;;13.50;8.75;;;5.60;99.90;;;;;;4969110;28;20034;-79
2024/02/08 14:44:51;;;;;;;13.30;9.70;;;5.60;99.90;;;;;;4970033;28;20121;-81
2024/02/08 14:47:25;;;;;;;15.10;10.02;;;5.60;99.90;;;;;;4943925;28;20038;-81
2024/02/08 14:50:00;;;;;;;11.18;9.45;;;5.60;99.90;;;;;;4971893;28;20042;-81
2024/02/08 14:52:34;;;;;;;15.02;9.10;;;5.60;99.90;;;;;;4959318;28;20089;-81
2024/02/08 14:55:09;;;;;;;13.07;8.68;;;5.70;99.90;;;;;;4945247;28;20030;-81
2024/02/08 14:57:45;;;;;;;10.30;8.07;;;5.60;99.90;;;;;;4970273;28;20557;-80
2024/02/08 15:00:57;;;;;;;;;;;5.60;99.90;;;;;;4972168;28;20038;-80
2024/02/08 15:03:02;;;;;;;11.82;8.93;;;5.60;99.90;;;;;;4957694;28;19947;-80
2024/02/08 15:05:46;;;;;;;12.63;8.88;;;5.60;99.90;;;;;;4936245;28;20588;-80